createdAt,value
2017-03-13T00:00:13.507Z,3.99
2017-03-13T00:00:54.019Z,4.02
2017-03-13T00:01:34.506Z,4.04
2017-03-13T00:02:14.939Z,4.13
2017-03-13T00:02:55.400Z,4.06
2017-03-13T00:03:35.906Z,4.05
2017-03-13T00:04:16.384Z,4.08
2017-03-13T00:04:56.868Z,4.13
2017-03-13T00:05:37.371Z,4.16
2017-03-13T00:06:17.866Z,4.14
2017-03-13T00:06:58.322Z,4.13
2017-03-13T00:07:38.821Z,4.17
2017-03-13T00:08:19.304Z,4.17
2017-03-13T00:08:59.781Z,4.17
2017-03-13T00:09:40.287Z,4.17
2017-03-13T00:10:20.813Z,4.14
2017-03-13T00:11:01.310Z,4.28
2017-03-13T00:11:41.804Z,4.17
2017-03-13T00:12:22.281Z,4.16
2017-03-13T00:13:02.745Z,4.12
2017-03-13T00:13:43.268Z,4.16
2017-03-13T00:14:23.737Z,4.2
2017-03-13T00:15:04.243Z,4.13
2017-03-13T00:15:44.744Z,4.19
2017-03-13T00:16:25.248Z,4.23
2017-03-13T00:17:05.779Z,4.17
2017-03-13T00:17:46.241Z,4.14
2017-03-13T00:18:26.736Z,4.16
2017-03-13T00:19:07.205Z,4.13
2017-03-13T00:19:47.701Z,4.13
2017-03-13T00:20:28.197Z,4.1
2017-03-13T00:21:08.654Z,4.16
2017-03-13T00:21:49.136Z,4.24
2017-03-13T00:22:29.624Z,4.23
2017-03-13T00:23:10.123Z,4.28
2017-03-13T00:23:50.606Z,4.24
2017-03-13T00:24:31.081Z,4.22
2017-03-13T00:25:11.571Z,4.26
2017-03-13T00:25:52.048Z,4.28
2017-03-13T00:26:32.525Z,4.23
2017-03-13T00:27:13.020Z,4.3
2017-03-13T00:27:53.485Z,4.2
2017-03-13T00:28:33.956Z,4.23
2017-03-13T00:29:14.501Z,4.26
2017-03-13T00:29:55.007Z,4.22
2017-03-13T00:30:35.489Z,4.22
2017-03-13T00:31:15.993Z,4.31
2017-03-13T00:31:56.479Z,4.3
2017-03-13T00:32:36.950Z,4.31
2017-03-13T00:33:17.407Z,4.23
2017-03-13T00:33:57.894Z,4.38
2017-03-13T00:34:38.363Z,4.34
2017-03-13T00:35:18.835Z,4.31
2017-03-13T00:35:59.316Z,4.35
2017-03-13T00:36:39.796Z,4.31
2017-03-13T00:37:20.306Z,4.35
2017-03-13T00:38:00.792Z,4.34
2017-03-13T00:38:41.276Z,4.32
2017-03-13T00:39:21.780Z,4.22
2017-03-13T00:40:02.247Z,4.28
2017-03-13T00:40:42.712Z,4.37
2017-03-13T00:41:23.201Z,4.31
2017-03-13T00:42:03.690Z,4.26
2017-03-13T00:42:44.205Z,4.24
2017-03-13T00:43:24.670Z,4.28
2017-03-13T00:44:05.143Z,4.26
2017-03-13T00:44:45.618Z,4.3
2017-03-13T00:45:26.077Z,4.23
2017-03-13T00:46:06.616Z,4.24
2017-03-13T00:46:47.123Z,4.24
2017-03-13T00:47:27.589Z,4.23
2017-03-13T00:48:08.076Z,4.24
2017-03-13T00:48:48.583Z,4.26
2017-03-13T00:49:29.066Z,4.3
2017-03-13T00:50:09.555Z,4.2
2017-03-13T00:50:50.058Z,4.26
2017-03-13T00:51:30.576Z,4.26
2017-03-13T00:52:11.047Z,4.26
2017-03-13T00:52:51.497Z,4.24
2017-03-13T00:53:32.004Z,4.3
2017-03-13T00:54:12.506Z,4.28
2017-03-13T00:54:52.949Z,4.16
2017-03-13T00:55:33.435Z,4.24
2017-03-13T00:56:13.945Z,4.13
2017-03-13T00:56:54.422Z,4.17
2017-03-13T00:57:34.878Z,4.14
2017-03-13T00:58:15.373Z,4.17
2017-03-13T00:58:55.874Z,4.19
2017-03-13T00:59:36.353Z,4.17
2017-03-13T01:00:16.846Z,4.26
2017-03-13T01:00:57.332Z,4.1
2017-03-13T01:01:37.797Z,4.19
2017-03-13T01:02:18.294Z,4.13
2017-03-13T01:02:58.747Z,4.06
2017-03-13T01:03:39.247Z,4.22
2017-03-13T01:04:19.731Z,4.13
2017-03-13T01:05:00.241Z,4.16
2017-03-13T01:05:40.727Z,4.17
2017-03-13T01:06:21.192Z,4.23
2017-03-13T01:07:01.662Z,4.26
2017-03-13T01:07:42.156Z,4.24
2017-03-13T01:08:22.643Z,4.31
2017-03-13T01:09:03.123Z,4.13
2017-03-13T01:09:43.663Z,4.22
2017-03-13T01:10:24.136Z,4.24
2017-03-13T01:11:04.627Z,4.16
2017-03-13T01:11:45.097Z,4.13
2017-03-13T01:12:25.643Z,4.3
2017-03-13T01:13:06.113Z,4.2
2017-03-13T01:13:46.614Z,4.16
2017-03-13T01:14:27.078Z,4.19
2017-03-13T01:15:07.573Z,4.22
2017-03-13T01:15:48.087Z,4.16
2017-03-13T01:16:28.581Z,4.19
2017-03-13T01:17:09.083Z,4.19
2017-03-13T01:17:49.538Z,4.16
2017-03-13T01:18:30.027Z,4.16
2017-03-13T01:19:10.517Z,4.16
2017-03-13T01:19:50.980Z,4.17
2017-03-13T01:20:31.451Z,4.23
2017-03-13T01:21:11.988Z,4.13
2017-03-13T01:21:52.464Z,4.19
2017-03-13T01:22:32.939Z,4.22
2017-03-13T01:23:13.419Z,4.23
2017-03-13T01:23:53.875Z,4.19
2017-03-13T01:24:34.348Z,4.13
2017-03-13T01:25:14.893Z,4.14
2017-03-13T01:25:55.416Z,4.19
2017-03-13T01:26:35.937Z,4.14
2017-03-13T01:27:16.428Z,4.17
2017-03-13T01:27:56.940Z,4.19
2017-03-13T01:28:37.395Z,4.12
2017-03-13T01:29:17.904Z,4.13
2017-03-13T01:29:58.398Z,4.2
2017-03-13T01:30:38.855Z,4.05
2017-03-13T01:31:19.331Z,4.22
2017-03-13T01:31:59.825Z,4.08
2017-03-13T01:32:40.269Z,4.13
2017-03-13T01:33:20.772Z,4.13
2017-03-13T01:34:01.226Z,4.08
2017-03-13T01:34:41.732Z,4.1
2017-03-13T01:35:22.224Z,4.14
2017-03-13T01:36:02.771Z,4.2
2017-03-13T01:36:43.208Z,4.12
2017-03-13T01:37:23.727Z,4.16
2017-03-13T01:38:04.201Z,4.12
2017-03-13T01:38:44.703Z,4.06
2017-03-13T01:39:25.173Z,3.99
2017-03-13T01:40:05.704Z,4.16
2017-03-13T01:40:46.155Z,4.13
2017-03-13T01:41:26.662Z,4.06
2017-03-13T01:42:07.215Z,4.19
2017-03-13T01:42:47.679Z,4.1
2017-03-13T01:43:28.165Z,4.13
2017-03-13T01:44:08.636Z,4.13
2017-03-13T01:44:49.112Z,4.06
2017-03-13T01:45:29.593Z,4.17
2017-03-13T01:46:10.098Z,4.06
2017-03-13T01:46:50.539Z,4.2
2017-03-13T01:47:31.068Z,4.19
2017-03-13T01:48:11.543Z,4.02
2017-03-13T01:48:52.083Z,4.05
2017-03-13T01:49:32.542Z,4.1
2017-03-13T01:50:13.013Z,4.05
2017-03-13T01:50:53.497Z,4.08
2017-03-13T01:51:33.997Z,4.13
2017-03-13T01:52:14.482Z,4.01
2017-03-13T01:52:54.961Z,4.1
2017-03-13T01:53:35.455Z,4.1
2017-03-13T01:54:15.926Z,4.13
2017-03-13T01:54:56.427Z,4.17
2017-03-13T01:55:36.925Z,4.14
2017-03-13T01:56:17.419Z,4.13
2017-03-13T01:56:57.923Z,4.13
2017-03-13T01:57:38.440Z,4.12
2017-03-13T01:58:18.888Z,4.13
2017-03-13T01:58:59.375Z,4.06
2017-03-13T01:59:39.864Z,4.1
2017-03-13T02:00:20.355Z,4.1
2017-03-13T02:01:00.866Z,4.13
2017-03-13T02:01:41.332Z,4.16
2017-03-13T02:02:21.799Z,4.13
2017-03-13T02:03:02.312Z,4.04
2017-03-13T02:03:42.827Z,4.08
2017-03-13T02:04:23.322Z,4.16
2017-03-13T02:05:03.806Z,4.13
2017-03-13T02:05:44.291Z,4.06
2017-03-13T02:06:24.773Z,4.12
2017-03-13T02:07:05.228Z,4.13
2017-03-13T02:07:45.745Z,4.13
2017-03-13T02:08:26.272Z,4.02
2017-03-13T02:09:06.724Z,4.06
2017-03-13T02:09:47.202Z,4.1
2017-03-13T02:10:27.685Z,4.01
2017-03-13T02:11:08.150Z,3.99
2017-03-13T02:11:48.629Z,4.05
2017-03-13T02:12:29.141Z,4.01
2017-03-13T02:13:09.649Z,4.05
2017-03-13T02:13:50.110Z,4.1
2017-03-13T02:14:30.605Z,4.04
2017-03-13T02:15:11.108Z,4.05
2017-03-13T02:15:51.553Z,4.04
2017-03-13T02:16:32.043Z,4.04
2017-03-13T02:17:12.571Z,4.04
2017-03-13T02:17:53.085Z,4.06
2017-03-13T02:18:33.519Z,3.98
2017-03-13T02:19:14.045Z,4.01
2017-03-13T02:19:54.513Z,3.99
2017-03-13T02:20:35.009Z,3.98
2017-03-13T02:21:15.486Z,4.05
2017-03-13T02:21:55.985Z,3.98
2017-03-13T02:22:36.483Z,3.99
2017-03-13T02:23:16.906Z,4.02
2017-03-13T02:23:57.386Z,3.98
2017-03-13T02:24:37.883Z,4.02
2017-03-13T02:25:18.345Z,3.88
2017-03-13T02:25:58.813Z,3.94
2017-03-13T02:26:39.302Z,3.92
2017-03-13T02:27:19.786Z,3.94
2017-03-13T02:28:00.280Z,3.94
2017-03-13T02:28:40.755Z,3.91
2017-03-13T02:29:21.251Z,3.92
2017-03-13T02:30:01.704Z,3.99
2017-03-13T02:30:42.228Z,3.92
2017-03-13T02:31:22.678Z,3.96
2017-03-13T02:32:03.166Z,3.96
2017-03-13T02:32:43.646Z,3.98
2017-03-13T02:33:24.136Z,3.92
2017-03-13T02:34:04.604Z,3.98
2017-03-13T02:34:45.073Z,3.94
2017-03-13T02:35:25.552Z,3.92
2017-03-13T02:36:06.057Z,3.91
2017-03-13T02:36:46.555Z,3.95
2017-03-13T02:37:27.069Z,3.87
2017-03-13T02:38:07.554Z,3.87
2017-03-13T02:38:48.023Z,3.86
2017-03-13T02:39:28.483Z,3.91
2017-03-13T02:40:08.965Z,3.86
2017-03-13T02:40:49.430Z,3.8
2017-03-13T02:41:29.919Z,3.84
2017-03-13T02:42:10.431Z,3.81
2017-03-13T02:42:50.917Z,3.81
2017-03-13T02:43:31.407Z,3.91
2017-03-13T02:44:11.874Z,3.83
2017-03-13T02:44:52.341Z,3.84
2017-03-13T02:45:32.881Z,3.87
2017-03-13T02:46:13.363Z,3.81
2017-03-13T02:46:53.793Z,3.87
2017-03-13T02:47:34.328Z,3.92
2017-03-13T02:48:14.810Z,3.86
2017-03-13T02:48:55.289Z,3.86
2017-03-13T02:49:35.827Z,3.84
2017-03-13T02:50:16.289Z,3.81
2017-03-13T02:50:56.776Z,3.83
2017-03-13T02:51:37.254Z,3.81
2017-03-13T02:52:17.724Z,3.81
2017-03-13T02:52:58.218Z,3.88
2017-03-13T02:53:38.714Z,3.91
2017-03-13T02:54:19.201Z,3.87
2017-03-13T02:54:59.694Z,3.86
2017-03-13T02:55:40.167Z,3.88
2017-03-13T02:56:20.648Z,3.86
2017-03-13T02:57:01.210Z,3.87
2017-03-13T02:57:41.628Z,3.87
2017-03-13T02:58:22.158Z,3.84
2017-03-13T02:59:02.625Z,3.84
2017-03-13T02:59:43.064Z,3.87
2017-03-13T03:00:23.519Z,3.84
2017-03-13T03:01:04.000Z,3.91
2017-03-13T03:01:44.493Z,3.84
2017-03-13T03:02:24.966Z,3.84
2017-03-13T03:03:05.437Z,3.81
2017-03-13T03:03:45.959Z,3.84
2017-03-13T03:04:26.439Z,3.84
2017-03-13T03:05:06.919Z,3.77
2017-03-13T03:05:47.410Z,3.88
2017-03-13T03:06:27.913Z,3.84
2017-03-13T03:07:08.385Z,3.77
2017-03-13T03:07:48.892Z,3.77
2017-03-13T03:08:29.351Z,3.76
2017-03-13T03:09:09.876Z,3.77
2017-03-13T03:09:50.320Z,3.81
2017-03-13T03:10:30.799Z,3.76
2017-03-13T03:11:11.311Z,3.74
2017-03-13T03:11:51.790Z,3.76
2017-03-13T03:12:32.263Z,3.77
2017-03-13T03:13:12.743Z,3.86
2017-03-13T03:13:53.228Z,3.77
2017-03-13T03:14:33.754Z,3.81
2017-03-13T03:15:14.211Z,3.78
2017-03-13T03:15:54.690Z,3.76
2017-03-13T03:16:35.206Z,3.78
2017-03-13T03:17:15.650Z,3.78
2017-03-13T03:17:56.139Z,3.73
2017-03-13T03:18:36.631Z,3.77
2017-03-13T03:19:17.105Z,3.77
2017-03-13T03:19:57.579Z,3.81
2017-03-13T03:22:10.873Z,3.69
2017-03-13T03:22:51.208Z,3.73
2017-03-13T03:23:31.698Z,3.68
2017-03-13T03:24:12.141Z,3.7
2017-03-13T03:24:52.614Z,3.63
2017-03-13T03:25:33.113Z,3.78
2017-03-13T03:26:13.586Z,3.69
2017-03-13T03:26:54.082Z,3.77
2017-03-13T03:27:34.542Z,3.69
2017-03-13T03:28:15.019Z,3.66
2017-03-13T03:28:55.491Z,3.58
2017-03-13T03:29:35.932Z,3.68
2017-03-13T03:30:16.432Z,3.66
2017-03-13T03:30:56.951Z,3.68
2017-03-13T03:31:37.422Z,3.65
2017-03-13T03:32:18.040Z,3.65
2017-03-13T03:32:58.495Z,3.65
2017-03-13T03:33:38.981Z,3.55
2017-03-13T03:34:19.479Z,3.66
2017-03-13T03:34:59.922Z,3.63
2017-03-13T03:35:40.391Z,3.56
2017-03-13T03:36:20.898Z,3.6
2017-03-13T03:37:01.418Z,3.63
2017-03-13T03:37:41.870Z,3.56
2017-03-13T03:38:22.307Z,3.6
2017-03-13T03:39:02.785Z,3.55
2017-03-13T03:39:43.277Z,3.56
2017-03-13T03:40:23.776Z,3.53
2017-03-13T03:41:04.274Z,3.58
2017-03-13T03:41:44.743Z,3.55
2017-03-13T03:42:25.250Z,3.53
2017-03-13T03:43:05.722Z,3.56
2017-03-13T03:43:46.241Z,3.62
2017-03-13T03:44:26.710Z,3.55
2017-03-13T03:45:07.177Z,3.59
2017-03-13T03:45:47.675Z,3.62
2017-03-13T03:46:28.272Z,3.53
2017-03-13T03:47:08.767Z,3.6
2017-03-13T03:47:49.225Z,3.63
2017-03-13T03:48:29.716Z,3.65
2017-03-13T03:49:10.216Z,3.62
2017-03-13T03:49:50.710Z,3.59
2017-03-13T03:50:31.228Z,3.55
2017-03-13T03:51:11.694Z,3.55
2017-03-13T03:51:52.169Z,3.5
2017-03-13T03:52:32.661Z,3.56
2017-03-13T03:53:13.144Z,3.59
2017-03-13T03:53:53.649Z,3.53
2017-03-13T03:54:34.143Z,3.56
2017-03-13T03:55:14.657Z,3.56
2017-03-13T03:55:55.141Z,3.53
2017-03-13T03:56:35.631Z,3.55
2017-03-13T03:57:16.097Z,3.58
2017-03-13T03:57:56.557Z,3.59
2017-03-13T03:58:37.049Z,3.55
2017-03-13T03:59:17.553Z,3.53
2017-03-13T03:59:58.008Z,3.58
2017-03-13T04:00:38.497Z,3.53
2017-03-13T04:01:18.971Z,3.55
2017-03-13T04:01:59.457Z,3.53
2017-03-13T04:02:40.048Z,3.58
2017-03-13T04:03:20.561Z,3.56
2017-03-13T04:04:01.051Z,3.55
2017-03-13T04:04:41.497Z,3.53
2017-03-13T04:05:21.984Z,3.53
2017-03-13T04:06:02.446Z,3.55
2017-03-13T04:06:42.965Z,3.6
2017-03-13T04:07:23.415Z,3.58
2017-03-13T04:08:03.914Z,3.53
2017-03-13T04:08:44.395Z,3.55
2017-03-13T04:09:24.889Z,3.56
2017-03-13T04:10:05.369Z,3.56
2017-03-13T04:10:45.807Z,3.58
2017-03-13T04:11:26.305Z,3.62
2017-03-13T04:12:06.795Z,3.55
2017-03-13T04:12:47.296Z,3.55
2017-03-13T04:13:27.777Z,3.56
2017-03-13T04:14:08.286Z,3.5
2017-03-13T04:14:48.754Z,3.55
2017-03-13T04:15:29.252Z,3.58
2017-03-13T04:16:09.679Z,3.51
2017-03-13T04:16:50.154Z,3.53
2017-03-13T04:17:30.635Z,3.53
2017-03-13T04:18:11.131Z,3.53
2017-03-13T04:18:51.598Z,3.55
2017-03-13T04:19:32.075Z,3.55
2017-03-13T04:20:12.535Z,3.53
2017-03-13T04:20:53.024Z,3.55
2017-03-13T04:21:33.456Z,3.53
2017-03-13T04:22:13.912Z,3.62
2017-03-13T04:22:54.399Z,3.58
2017-03-13T04:23:34.881Z,3.48
2017-03-13T04:24:15.364Z,3.55
2017-03-13T04:26:28.624Z,3.55
2017-03-13T04:27:09.014Z,3.6
2017-03-13T04:27:49.477Z,3.5
2017-03-13T04:28:29.938Z,3.55
2017-03-13T04:29:10.419Z,3.55
2017-03-13T04:29:50.894Z,3.56
2017-03-13T04:30:31.391Z,3.48
2017-03-13T04:31:11.863Z,3.56
2017-03-13T04:31:52.357Z,3.51
2017-03-13T04:32:32.840Z,3.53
2017-03-13T04:33:13.328Z,3.58
2017-03-13T04:33:53.790Z,3.55
2017-03-13T04:34:34.288Z,3.5
2017-03-13T04:35:14.752Z,3.48
2017-03-13T04:35:55.221Z,3.59
2017-03-13T04:36:35.681Z,3.6
2017-03-13T04:37:16.132Z,3.59
2017-03-13T04:37:56.639Z,3.47
2017-03-13T04:38:37.101Z,3.48
2017-03-13T04:39:17.610Z,3.51
2017-03-13T04:39:58.079Z,3.48
2017-03-13T04:40:38.533Z,3.6
2017-03-13T04:41:19.027Z,3.58
2017-03-13T04:41:59.563Z,3.53
2017-03-13T04:42:39.998Z,3.45
2017-03-13T04:43:20.466Z,3.48
2017-03-13T04:44:00.965Z,3.51
2017-03-13T04:44:41.471Z,3.5
2017-03-13T04:45:21.943Z,3.56
2017-03-13T04:46:02.420Z,3.53
2017-03-13T04:46:42.920Z,3.5
2017-03-13T04:47:23.415Z,3.48
2017-03-13T04:48:03.904Z,3.47
2017-03-13T04:48:44.404Z,3.48
2017-03-13T04:49:24.862Z,3.5
2017-03-13T04:50:05.341Z,3.42
2017-03-13T04:50:45.839Z,3.5
2017-03-13T04:51:26.328Z,3.5
2017-03-13T04:52:06.759Z,3.47
2017-03-13T04:52:47.244Z,3.51
2017-03-13T04:53:27.724Z,3.56
2017-03-13T04:54:08.228Z,3.51
2017-03-13T04:54:48.695Z,3.47
2017-03-13T04:55:29.195Z,3.48
2017-03-13T04:56:09.648Z,3.55
2017-03-13T04:56:50.122Z,3.5
2017-03-13T04:57:30.582Z,3.51
2017-03-13T04:58:11.079Z,3.48
2017-03-13T04:58:51.542Z,3.55
2017-03-13T04:59:32.020Z,3.5
2017-03-13T05:00:12.534Z,3.53
2017-03-13T05:00:52.982Z,3.47
2017-03-13T05:01:33.456Z,3.6
2017-03-13T05:02:13.937Z,3.55
2017-03-13T05:02:54.402Z,3.51
2017-03-13T05:03:34.923Z,3.55
2017-03-13T05:04:15.394Z,3.55
2017-03-13T05:04:55.901Z,3.55
2017-03-13T05:05:36.369Z,3.55
2017-03-13T05:06:16.849Z,3.55
2017-03-13T05:06:57.324Z,3.56
2017-03-13T05:07:37.793Z,3.55
2017-03-13T05:08:18.267Z,3.55
2017-03-13T05:08:58.718Z,3.55
2017-03-13T05:09:39.177Z,3.56
2017-03-13T05:10:19.670Z,3.56
2017-03-13T05:11:00.138Z,3.48
2017-03-13T05:11:40.637Z,3.53
2017-03-13T05:12:21.112Z,3.55
2017-03-13T05:13:01.619Z,3.59
2017-03-13T05:13:42.138Z,3.55
2017-03-13T05:14:22.647Z,3.56
2017-03-13T05:15:03.124Z,3.6
2017-03-13T05:15:43.615Z,3.56
2017-03-13T05:16:24.082Z,3.51
2017-03-13T05:17:04.610Z,3.58
2017-03-13T05:17:45.050Z,3.5
2017-03-13T05:18:25.540Z,3.56
2017-03-13T05:19:06.037Z,3.56
2017-03-13T05:19:46.562Z,3.55
2017-03-13T05:20:27.024Z,3.55
2017-03-13T05:21:07.501Z,3.56
2017-03-13T05:21:54.623Z,3.5
2017-03-13T05:22:35.108Z,3.47
2017-03-13T05:23:16.116Z,3.53
2017-03-13T05:23:56.559Z,3.47
2017-03-13T05:24:37.106Z,3.53
2017-03-13T05:25:17.621Z,3.51
2017-03-13T05:25:58.141Z,3.47
2017-03-13T05:26:38.779Z,3.45
2017-03-13T05:27:19.221Z,3.5
2017-03-13T05:27:59.674Z,3.47
2017-03-13T05:28:40.153Z,3.42
2017-03-13T05:29:20.648Z,3.4
2017-03-13T05:30:01.295Z,3.32
2017-03-13T05:30:41.783Z,3.4
2017-03-13T05:31:22.236Z,3.48
2017-03-13T05:32:02.728Z,3.37
2017-03-13T05:32:43.235Z,3.37
2017-03-13T05:33:23.764Z,3.36
2017-03-13T05:34:04.233Z,3.36
2017-03-13T05:34:44.713Z,3.32
2017-03-13T05:35:25.183Z,3.4
2017-03-13T05:36:05.670Z,3.28
2017-03-13T05:36:46.209Z,3.31
2017-03-13T05:37:26.681Z,3.26
2017-03-13T05:38:07.143Z,3.25
2017-03-13T05:38:47.642Z,3.19
2017-03-13T05:39:28.146Z,3.16
2017-03-13T05:40:08.621Z,3.21
2017-03-13T05:40:49.121Z,3.34
2017-03-13T05:41:29.582Z,3.21
2017-03-13T05:42:10.075Z,3.23
2017-03-13T05:42:50.589Z,3.23
2017-03-13T05:43:31.061Z,3.16
2017-03-13T05:44:11.535Z,3.19
2017-03-13T05:44:52.028Z,3.19
2017-03-13T05:45:32.500Z,3.11
2017-03-13T05:46:13.016Z,3.11
2017-03-13T05:46:53.457Z,3.14
2017-03-13T05:47:33.978Z,3.07
2017-03-13T05:48:14.433Z,3.05
2017-03-13T05:48:54.913Z,3.1
2017-03-13T05:49:35.438Z,3.14
2017-03-13T05:50:16.042Z,3.03
2017-03-13T05:50:56.550Z,3.13
2017-03-13T05:51:37.038Z,3.05
2017-03-13T05:52:17.527Z,3.13
2017-03-13T05:52:58.004Z,3.05
2017-03-13T05:53:38.469Z,3.08
2017-03-13T05:54:18.961Z,3.08
2017-03-13T05:54:59.452Z,3.13
2017-03-13T05:55:39.909Z,3.1
2017-03-13T05:56:20.410Z,3.11
2017-03-13T05:57:00.878Z,3.07
2017-03-13T05:57:41.377Z,3.13
2017-03-13T05:58:21.833Z,3.05
2017-03-13T05:59:02.335Z,3.08
2017-03-13T05:59:42.788Z,3.1
2017-03-13T06:00:23.368Z,3.05
2017-03-13T06:01:03.842Z,3.14
2017-03-13T06:01:44.349Z,3.08
2017-03-13T06:02:24.847Z,3.08
2017-03-13T06:03:05.302Z,3.1
2017-03-13T06:03:45.808Z,3.18
2017-03-13T06:04:26.250Z,3.19
2017-03-13T06:05:06.717Z,3.18
2017-03-13T06:06:59.726Z,3.21
2017-03-13T06:07:40.197Z,3.22
2017-03-13T06:08:20.699Z,3.19
2017-03-13T06:09:01.228Z,3.23
2017-03-13T06:09:41.745Z,3.16
2017-03-13T06:10:22.249Z,3.18
2017-03-13T06:11:02.727Z,3.18
2017-03-13T06:11:43.256Z,3.18
2017-03-13T06:12:23.799Z,3.29
2017-03-13T06:13:04.271Z,3.26
2017-03-13T06:13:44.716Z,3.25
2017-03-13T06:14:25.243Z,3.25
2017-03-13T06:15:05.716Z,3.36
2017-03-13T06:15:46.225Z,3.31
2017-03-13T06:16:26.701Z,3.41
2017-03-13T06:17:07.176Z,3.34
2017-03-13T06:17:47.670Z,3.41
2017-03-13T06:18:28.165Z,3.28
2017-03-13T06:19:08.662Z,3.34
2017-03-13T06:19:49.153Z,3.44
2017-03-13T06:20:29.628Z,3.34
2017-03-13T06:21:10.154Z,3.41
2017-03-13T06:21:50.681Z,3.37
2017-03-13T06:22:31.122Z,3.36
2017-03-13T06:23:11.619Z,3.41
2017-03-13T06:23:52.073Z,3.34
2017-03-13T06:24:32.534Z,3.37
2017-03-13T06:25:13.037Z,3.37
2017-03-13T06:25:53.501Z,3.42
2017-03-13T06:26:34.059Z,3.44
2017-03-13T06:27:14.525Z,3.42
2017-03-13T06:27:55.021Z,3.45
2017-03-13T06:28:35.515Z,3.45
2017-03-13T06:29:15.989Z,3.47
2017-03-13T06:29:56.472Z,3.5
2017-03-13T06:30:36.944Z,3.55
2017-03-13T06:31:20.116Z,3.58
2017-03-13T06:32:00.595Z,3.58
2017-03-13T06:32:41.099Z,3.58
2017-03-13T06:33:21.589Z,3.59
2017-03-13T06:34:02.078Z,3.53
2017-03-13T06:34:42.552Z,3.58
2017-03-13T06:35:23.041Z,3.62
2017-03-13T06:36:03.525Z,3.66
2017-03-13T06:36:44.055Z,3.63
2017-03-13T06:37:24.506Z,3.7
2017-03-13T06:38:04.995Z,3.65
2017-03-13T06:38:45.496Z,3.7
2017-03-13T06:39:26.047Z,3.68
2017-03-13T06:40:06.482Z,3.73
2017-03-13T06:40:46.968Z,3.74
2017-03-13T06:41:27.438Z,3.77
2017-03-13T06:42:07.941Z,3.77
2017-03-13T06:42:48.407Z,3.74
2017-03-13T06:43:28.912Z,3.76
2017-03-13T06:44:09.375Z,3.81
2017-03-13T06:44:49.857Z,3.86
2017-03-13T06:45:30.327Z,3.83
2017-03-13T06:46:10.818Z,3.84
2017-03-13T06:46:51.362Z,3.87
2017-03-13T06:47:31.885Z,3.83
2017-03-13T06:48:12.401Z,3.88
2017-03-13T06:48:52.877Z,3.87
2017-03-13T06:49:33.352Z,3.95
2017-03-13T06:50:13.862Z,3.99
2017-03-13T06:50:54.353Z,3.95
2017-03-13T06:51:34.823Z,3.99
2017-03-13T06:52:15.289Z,3.98
2017-03-13T06:52:55.783Z,4.02
2017-03-13T06:53:36.316Z,4.05
2017-03-13T06:54:16.810Z,4.02
2017-03-13T06:54:57.273Z,3.98
2017-03-13T06:55:37.770Z,4.05
2017-03-13T06:56:18.320Z,3.95
2017-03-13T06:56:58.834Z,4.05
2017-03-13T06:57:39.338Z,4.01
2017-03-13T06:58:19.827Z,4.01
2017-03-13T06:59:00.284Z,4.05
2017-03-13T06:59:40.793Z,4.05
2017-03-13T07:00:21.257Z,4.08
2017-03-13T07:01:01.744Z,4.08
2017-03-13T07:01:42.286Z,4.08
2017-03-13T07:02:22.823Z,4.06
2017-03-13T07:03:03.312Z,4.1
2017-03-13T07:03:43.824Z,4.08
2017-03-13T07:04:24.263Z,4.1
2017-03-13T07:05:04.767Z,4.13
2017-03-13T07:05:45.241Z,4.16
2017-03-13T07:06:25.793Z,4.14
2017-03-13T07:07:06.273Z,4.14
2017-03-13T07:07:46.780Z,4.16
2017-03-13T07:08:27.261Z,4.24
2017-03-13T07:09:07.758Z,4.16
2017-03-13T07:09:48.245Z,4.16
2017-03-13T07:10:28.723Z,4.2
2017-03-13T07:11:09.194Z,4.17
2017-03-13T07:11:49.820Z,4.17
2017-03-13T07:12:30.310Z,4.16
2017-03-13T07:13:10.828Z,4.17
2017-03-13T07:13:51.343Z,4.28
2017-03-13T07:14:31.833Z,4.28
2017-03-13T07:15:12.331Z,4.35
2017-03-13T07:15:52.805Z,4.26
2017-03-13T07:16:33.284Z,4.26
2017-03-13T07:17:13.895Z,4.3
2017-03-13T07:17:54.404Z,4.34
2017-03-13T07:18:34.826Z,4.37
2017-03-13T07:19:15.328Z,4.4
2017-03-13T07:19:55.831Z,4.28
2017-03-13T07:20:36.341Z,4.37
2017-03-13T07:21:16.942Z,4.35
2017-03-13T07:21:57.414Z,4.38
2017-03-13T07:22:37.890Z,4.44
2017-03-13T07:23:18.403Z,4.42
2017-03-13T07:23:58.855Z,4.45
2017-03-13T07:24:39.336Z,4.42
2017-03-13T07:25:19.808Z,4.5
2017-03-13T07:26:00.274Z,4.48
2017-03-13T07:26:40.755Z,4.48
2017-03-13T07:27:21.247Z,4.5
2017-03-13T07:28:01.709Z,4.45
2017-03-13T07:28:42.191Z,4.48
2017-03-13T07:29:22.678Z,4.44
2017-03-13T07:30:03.253Z,4.53
2017-03-13T07:30:43.663Z,4.5
2017-03-13T07:31:24.125Z,4.45
2017-03-13T07:32:04.659Z,4.44
2017-03-13T07:32:45.361Z,4.45
2017-03-13T07:33:25.847Z,4.45
2017-03-13T07:34:06.406Z,4.5
2017-03-13T07:34:46.882Z,4.44
2017-03-13T07:35:27.336Z,4.48
2017-03-13T07:36:07.820Z,4.56
2017-03-13T07:36:48.319Z,4.6
2017-03-13T07:37:28.798Z,4.58
2017-03-13T07:38:09.339Z,4.55
2017-03-13T07:38:49.829Z,4.56
2017-03-13T07:39:30.321Z,4.62
2017-03-13T07:40:10.798Z,4.6
2017-03-13T07:40:51.290Z,4.62
2017-03-13T07:41:31.834Z,4.59
2017-03-13T07:42:12.339Z,4.58
2017-03-13T07:42:52.841Z,4.58
2017-03-13T07:43:33.352Z,4.55
2017-03-13T07:44:13.826Z,4.58
2017-03-13T07:44:54.313Z,4.56
2017-03-13T07:45:34.865Z,4.66
2017-03-13T07:46:15.424Z,4.59
2017-03-13T07:46:56.076Z,4.73
2017-03-13T07:47:36.739Z,4.63
2017-03-13T07:48:17.218Z,4.67
2017-03-13T07:48:57.754Z,4.78
2017-03-13T07:49:38.268Z,4.8
2017-03-13T07:50:19.639Z,4.77
2017-03-13T07:51:00.083Z,4.82
2017-03-13T07:51:41.593Z,4.78
2017-03-13T07:52:22.084Z,4.77
2017-03-13T07:53:02.573Z,4.84
2017-03-13T07:53:43.025Z,4.86
2017-03-13T07:54:25.111Z,4.77
2017-03-13T07:55:05.172Z,4.8
2017-03-13T07:55:45.718Z,4.84
2017-03-13T07:56:26.199Z,4.9
2017-03-13T07:57:06.713Z,4.82
2017-03-13T07:57:47.151Z,4.84
2017-03-13T07:58:27.795Z,4.84
2017-03-13T07:59:08.336Z,4.82
2017-03-13T07:59:48.802Z,4.87
2017-03-13T08:00:29.243Z,4.87
2017-03-13T08:01:09.706Z,4.93
2017-03-13T08:01:50.229Z,4.94
2017-03-13T08:02:30.721Z,4.94
2017-03-13T08:03:11.220Z,4.97
2017-03-13T08:03:51.706Z,4.9
2017-03-13T08:04:32.909Z,4.96
2017-03-13T08:05:13.388Z,4.96
2017-03-13T08:05:53.851Z,4.94
2017-03-13T08:06:34.351Z,4.97
2017-03-13T08:07:14.844Z,4.86
2017-03-13T08:07:55.325Z,4.93
2017-03-13T08:08:36.175Z,4.94
2017-03-13T08:09:16.803Z,4.84
2017-03-13T08:09:57.259Z,4.92
2017-03-13T08:10:37.753Z,4.94
2017-03-13T08:11:18.225Z,4.93
2017-03-13T08:11:59.756Z,4.89
2017-03-13T08:12:40.456Z,5.02
2017-03-13T08:13:21.001Z,4.94
2017-03-13T08:14:02.767Z,4.94
2017-03-13T08:14:43.396Z,4.99
2017-03-13T08:15:23.873Z,4.86
2017-03-13T08:16:05.399Z,5
2017-03-13T08:16:45.908Z,4.89
2017-03-13T08:17:26.563Z,4.92
2017-03-13T08:18:07.162Z,4.97
2017-03-13T08:18:47.913Z,4.99
2017-03-13T08:19:28.704Z,4.94
2017-03-13T08:20:11.545Z,5
2017-03-13T08:20:52.014Z,5.08
2017-03-13T08:21:33.736Z,4.97
2017-03-13T08:22:14.310Z,5.12
2017-03-13T08:22:54.806Z,5.04
2017-03-13T08:23:35.263Z,5.04
2017-03-13T08:24:15.751Z,5.1
2017-03-13T08:26:14.932Z,5.21
2017-03-13T08:26:55.663Z,5.3
2017-03-13T08:27:36.102Z,5.21
2017-03-13T08:28:17.771Z,5.21
2017-03-13T08:28:58.264Z,5.15
2017-03-13T08:29:39.124Z,5.21
2017-03-13T08:30:19.621Z,5.2
2017-03-13T08:31:00.079Z,5.32
2017-03-13T08:31:40.561Z,5.26
2017-03-13T08:32:21.081Z,5.28
2017-03-13T08:33:01.617Z,5.29
2017-03-13T08:33:42.070Z,5.33
2017-03-13T08:34:22.563Z,5.26
2017-03-13T08:35:03.078Z,5.38
2017-03-13T08:35:43.504Z,5.39
2017-03-13T08:36:25.489Z,5.35
2017-03-13T08:37:05.966Z,5.35
2017-03-13T08:37:46.454Z,5.54
2017-03-13T08:38:26.933Z,5.56
2017-03-13T08:39:07.437Z,5.5
2017-03-13T08:39:47.900Z,5.53
2017-03-13T08:40:31.093Z,5.64
2017-03-13T08:41:19.268Z,5.62
2017-03-13T08:42:04.261Z,5.8
2017-03-13T08:42:52.982Z,5.89
2017-03-13T08:43:32.216Z,5.98
2017-03-13T08:44:12.730Z,5.94
2017-03-13T08:44:53.238Z,6.12
2017-03-13T08:45:33.740Z,6.08
2017-03-13T08:46:14.199Z,6.12
2017-03-13T08:46:56.833Z,6.2
2017-03-13T08:47:43.708Z,6.28
2017-03-13T08:48:34.035Z,6.28
2017-03-13T08:49:21.183Z,6.39
2017-03-13T08:50:07.872Z,6.33
2017-03-13T08:50:52.294Z,6.36
2017-03-13T08:51:40.590Z,6.39
2017-03-13T08:52:29.898Z,6.45
2017-03-13T08:53:11.435Z,6.48
2017-03-13T08:53:51.964Z,6.6
2017-03-13T08:54:32.429Z,6.51
2017-03-13T08:55:12.884Z,6.54
2017-03-13T08:55:53.397Z,6.52
2017-03-13T08:56:33.868Z,6.51
2017-03-13T08:57:14.411Z,6.63
2017-03-13T08:57:54.883Z,6.63
2017-03-13T08:58:35.366Z,6.67
2017-03-13T08:59:15.954Z,6.67
2017-03-13T08:59:56.446Z,6.67
2017-03-13T09:00:37.030Z,6.82
2017-03-13T09:01:17.480Z,6.74
2017-03-13T09:01:57.936Z,6.67
2017-03-13T09:02:38.397Z,6.7
2017-03-13T09:03:18.942Z,6.59
2017-03-13T09:04:00.134Z,6.77
2017-03-13T09:04:40.549Z,6.75
2017-03-13T09:05:21.540Z,6.66
2017-03-13T09:06:02.114Z,6.69
2017-03-13T09:06:42.591Z,6.69
2017-03-13T09:07:23.121Z,6.67
2017-03-13T09:08:03.624Z,6.82